Hovedside
METAR-TAF:

METAR-TAF

Lufthavner :

Sunan internasjonale lufthavn

Pyongyang, Nord-Korea

breddegrad: 39-02N, lengdegrad: 125-47E, høyde over havet: 36 m

METAR: fraværende

Tid: 12:47 (04:17 UTC)

Varsel

Denne rapporten ble laget for 7 timer og 7 minutter siden, klokken 21:10 UTC
Varsel gyldig fra 24. klokken 00 UTC til 24. klokken 24 UTC
Vind 4 kt fra skiftende retning
Sikt: 2000 m
dis
Blir
fra 24. klokken 02 UTC til 24. klokken 03 UTC
Vind 8 kt fra Nordvest
Sikt 10 km eller mer
Brutte skyer i en høyde av 2000 ft

TAF: ZKPY 232110Z 2400/2424 VRB02MPS 2000 BR NSC TX18/2406Z TN04/2421Z BECMG 2402/2403 32004MPS 9999 BKN020

Værobservasjoner og værvarsel for over 4000 flyplasser (METAR- og TAF-rapporter).

Tilgjengelige stasjoner er representert av de røde og gule prikkene på kartet.

Hold musepekeren over prikken for å se navnet på stasjonen.

Klikk så for å se værobservasjoner og -varsler.

For å forandre kartet kan du klikke på den grønne knappen med svart kryss for å zoome inn, på den grønne knappen med strek for å zoome ut, eller på de grønne pilene for å se tilstøtende kart.


METAR-TAF: